This is the latest recevied weather packets stored in our database for station/object KD2RHT-13. If no packets are shown the sender has not sent any weather packets the latest 10 day(s).
| Time | Temp. | Humidity | Pressure | Rain* | Wind** | Luminosity | Snow |
|---|---|---|---|---|---|---|---|
| 1777753806 | 9.44° C | 63% | 1014.9 hPa | 0 mm | - | 266 W/m² | - |
| 1777753502 | 9.44° C | 60% | 1014.9 hPa | 0 mm | - | 143 W/m² | - |
| 1777753200 | 9.44° C | 60% | 1015.2 hPa | 0 mm | - | 452 W/m² | - |
| 1777752896 | 9.44° C | 58% | 1014.9 hPa | 0 mm | - | 326 W/m² | - |
| 1777752593 | 8.89° C | 59% | 1014.9 hPa | 0 mm | - | 605 W/m² | - |
| 1777751986 | 9.44° C | 58% | 1015.6 hPa | 0 mm | - | 220 W/m² | - |
| 1777751684 | 8.89° C | 61% | 1015.2 hPa | 0 mm | - | 301 W/m² | - |
| 1777751380 | 8.89° C | 60% | 1015.2 hPa | 0 mm | - | 266 W/m² | - |
| 1777750470 | 8.33° C | 63% | 1015.6 hPa | 0 mm | - | 257 W/m² | - |
| 1777750165 | 8.33° C | 65% | 1015.6 hPa | 0 mm | - | 207 W/m² | - |
| 1777749857 | 8.33° C | 65% | 1015.6 hPa | 0 mm | - | 153 W/m² | - |
| 1777749554 | 8.33° C | 64% | 1015.6 hPa | 0 mm | - | 160 W/m² | - |
| 1777748949 | 8.33° C | 66% | 1015.6 hPa | 0 mm | - | 239 W/m² | - |
| 1777748646 | 7.78° C | 67% | 1015.9 hPa | 0 mm | - | 180 W/m² | - |
| 1777748343 | 7.78° C | 66% | 1015.9 hPa | 0 mm | - | 152 W/m² | - |
| 1777748038 | 7.78° C | 66% | 1015.9 hPa | 0 mm | - | 174 W/m² | - |
| 1777747128 | 7.78° C | 65% | 1015.9 hPa | 0 mm | - | 338 W/m² | - |
| 1777746824 | 7.78° C | 64% | 1015.9 hPa | 0 mm | - | 263 W/m² | - |
| 1777746518 | 7.78° C | 66% | 1015.9 hPa | 0 mm | - | 134 W/m² | - |
| 1777745911 | 7.78° C | 67% | 1015.6 hPa | 0 mm | - | 140 W/m² | - |
| 1777744700 | 7.78° C | 66% | 1015.6 hPa | 0 mm | - | 295 W/m² | - |
| 1777740453 | 8.33° C | 64% | 1015.6 hPa | 0 mm | - | 218 W/m² | - |
| 1777739846 | 8.33° C | 64% | 1015.2 hPa | 0 mm | - | 211 W/m² | - |
| 1777739240 | 10° C | 65% | 1015.6 hPa | 0 mm | - | 194 W/m² | - |
| 1777738634 | 8.33° C | 63% | 1015.2 hPa | 0 mm | - | 810 W/m² | - |
* Rain latest hour (hover to see other rain measurements)
** Current wind speed in m/s (hover to see current wind gust speed)